Date,TemperatureHighF,TemperatureAvgF,TemperatureLowF,DewpointHighF,DewpointAvgF,DewpointLowF,HumidityHigh,HumidityAvg,HumidityLow,PressureMaxIn,PressureMinIn,WindSpeedMaxMPH,WindSpeedAvgMPH,GustSpeedMaxMPH,PrecipitationSumIn
2013-1-1,46.6,43.1,38.4,45.0,40.0,27.8,95,89,65,30.19,29.99,4,0,4,0.97
2013-1-2,46.0,38.8,36.0,44.6,36.8,34.1,95,93,89,30.17,29.96,13,1,13,0.05
2013-1-3,37.7,34.1,30.2,34.3,30.7,23.3,94,87,74,30.38,30.14,10,1,10,0.00
2013-1-4,42.2,31.1,23.9,28.6,22.1,18.1,91,71,43,30.45,30.35,14,1,14,0.00
2013-1-5,48.7,35.5,23.6,33.9,24.5,18.9,87,66,35,30.44,30.31,6,0,6,0.03
2013-1-6,42.3,36.9,34.8,36.1,32.9,29.5,94,85,74,30.31,30.15,15,1,15,0.02
2013-1-7,52.2,37.4,26.5,33.1,26.6,23.8,92,68,36,30.44,30.27,12,1,12,0.01
2013-1-8,57.2,45.0,35.1,47.5,37.2,26.6,88,74,60,30.44,30.33,15,2,15,0.00
2013-1-9,59.0,53.6,49.9,53.5,50.1,47.1,92,88,81,30.45,30.37,13,1,13,0.00
2013-1-10,62.9,56.6,49.2,51.8,50.1,46.8,94,80,64,30.44,30.24,18,2,18,0.04
2013-1-11,60.9,57.8,53.9,59.2,56.1,51.6,95,94,92,30.24,30.09,16,1,16,0.46
2013-1-12,68.6,61.0,57.6,62.0,57.7,54.8,98,89,67,30.16,30.04,8,0,8,0.03
2013-1-13,65.5,62.8,59.5,58.2,55.9,53.3,93,78,71,30.08,29.99,19,1,19,0.60
2013-1-14,59.6,54.0,45.1,57.9,52.5,43.6,96,95,93,30.15,29.98,14,0,14,1.78
2013-1-15,59.2,54.4,46.0,58.1,53.2,44.6,96,96,95,30.11,29.94,9,0,9,2.29
2013-1-16,59.2,55.0,51.5,58.1,53.6,50.1,96,95,93,30.00,29.88,15,1,15,0.71
2013-1-17,53.5,45.3,31.8,51.3,43.5,28.8,96,93,81,30.25,29.63,25,1,25,1.31
2013-1-18,48.9,35.3,28.9,31.2,26.5,21.5,89,71,48,30.53,30.25,10,1,10,0.00
2013-1-19,51.9,36.4,28.4,30.8,26.1,20.9,90,69,35,30.50,30.27,7,0,7,0.00
2013-1-20,54.7,40.4,29.5,35.9,30.4,25.8,92,69,43,30.28,30.13,13,1,13,0.00
2013-1-21,46.1,35.1,27.4,33.3,24.1,13.4,94,67,40,30.20,30.10,22,2,22,0.01
2013-1-22,34.5,26.7,20.7,14.3,8.2,4.6,59,46,32,30.36,30.17,21,3,21,0.00
2013-1-23,45.0,32.5,25.3,27.1,17.7,5.8,74,55,42,30.43,30.22,13,1,13,0.00
2013-1-24,41.4,36.2,27.5,35.4,20.0,7.7,80,54,32,30.40,30.17,24,3,24,0.00
2013-1-25,37.4,29.1,22.8,35.8,20.8,6.9,94,73,41,30.41,30.19,25,3,25,0.34
2013-1-26,49.2,36.9,30.7,35.8,30.9,25.3,100,80,53,30.37,30.22,11,1,11,0.00
2013-1-27,50.1,38.7,27.5,34.7,29.9,24.7,92,72,53,30.51,30.35,24,5,24,0.00
2013-1-28,58.6,47.1,38.6,51.1,40.1,29.3,93,77,67,30.46,30.28,17,1,17,0.00
2013-1-29,62.2,52.3,41.4,57.8,48.8,39.8,95,88,76,30.30,29.98,13,1,13,0.11
2013-1-30,64.8,55.7,36.8,60.1,52.6,34.1,94,89,81,29.98,29.50,36,3,36,3.07
2013-1-31,39.4,33.5,28.2,34.4,23.6,19.7,91,68,47,30.15,29.67,29,4,29,0.02